Time;durP1;ratioP1;P1;durP2;ratioP2;P2;SDS_P1;SDS_P2;PMS_P1;PMS_P2;Temp;Humidity;BMP_temperature;BMP_pressure;BME280_temperature;BME280_humidity;BME280_pressure;Samples;Min_cycle;Max_cycle;Signal;HPM_P1;HPM_P2
2023/07/14 00:00:15;;;;;;;8.57;7.43;;;;;;;15.54;84.24;101606.38;4988264;28;20042;-85
2023/07/14 00:02:46;;;;;;;14.00;8.43;;;;;;;15.58;84.03;101611.16;4991556;28;20059;-85
2023/07/14 00:05:13;;;;;;;11.10;7.82;;;;;;;15.56;83.90;101599.69;4979857;28;20659;-85
2023/07/14 00:07:45;;;;;;;9.05;7.45;;;;;;;15.57;84.48;101595.94;4987261;28;20030;-84
2023/07/14 00:10:14;;;;;;;9.20;7.63;;;;;;;15.59;84.06;101607.41;5025088;28;20053;-84
2023/07/14 00:12:39;;;;;;;9.35;7.72;;;;;;;15.56;84.90;101605.13;5014915;28;20028;-84
2023/07/14 00:15:05;;;;;;;9.30;8.40;;;;;;;15.52;85.38;101586.75;4999034;28;20059;-84
2023/07/14 00:17:31;;;;;;;11.65;8.32;;;;;;;15.50;85.34;101597.84;5006110;28;20035;-84
2023/07/14 00:19:56;;;;;;;11.30;7.65;;;;;;;15.50;84.95;101594.28;5022162;28;20434;-84
2023/07/14 00:22:22;;;;;;;10.00;7.78;;;;;;;15.52;84.79;101592.19;5029576;28;20052;-84
2023/07/14 00:24:47;;;;;;;9.95;7.53;;;;;;;15.46;84.79;101589.28;5012550;28;20030;-84
2023/07/14 00:27:18;;;;;;;9.45;8.25;;;;;;;15.36;86.12;101582.59;5012629;28;20030;-84
2023/07/14 00:29:43;;;;;;;8.68;7.78;;;;;;;15.28;86.77;101578.22;5002353;28;20039;-85
2023/07/14 00:32:11;;;;;;;10.93;7.78;;;;;;;15.29;86.99;101578.03;4986523;28;20049;-85
2023/07/14 00:34:36;;;;;;;11.45;7.88;;;;;;;15.33;87.26;101577.63;4972622;28;20124;-85
2023/07/14 00:37:01;;;;;;;10.00;8.02;;;;;;;15.29;87.93;101571.75;5005292;28;20026;-85
2023/07/14 00:39:27;;;;;;;9.93;7.53;;;;;;;15.31;88.01;101580.53;5023048;28;20030;-85
2023/07/14 00:41:53;;;;;;;8.55;7.65;;;;;;;15.30;87.99;101577.00;4993948;28;20038;-86
2023/07/14 00:44:18;;;;;;;8.73;7.85;;;;;;;15.31;88.22;101575.97;4970660;28;20055;-85
2023/07/14 00:46:44;;;;;;;10.20;8.27;;;;;;;15.36;87.68;101571.75;5038163;28;20395;-85
2023/07/14 00:49:33;;;;;;;10.07;9.02;;;;;;;15.22;88.78;101574.50;4992253;28;20506;-86
2023/07/14 00:52:08;;;;;;;11.27;8.90;;;;;;;15.13;89.86;101567.63;4974168;28;20038;-86
2023/07/14 00:54:34;;;;;;;10.32;9.30;;;;;;;15.06;90.24;101572.22;5011399;28;20028;-86
2023/07/14 00:57:00;;;;;;;11.85;9.25;;;;;;;14.95;90.70;101566.38;5025181;28;20473;-86
2023/07/14 00:59:30;;;;;;;11.57;9.10;;;;;;;14.93;90.78;101560.34;5008876;28;20603;-86
2023/07/14 01:02:11;;;;;;;11.32;10.05;;;;;;;14.85;91.20;101561.38;5027000;28;20033;-85
2023/07/14 01:04:41;;;;;;;11.90;10.25;;;;;;;14.76;92.01;101561.78;4990119;28;20470;-86
2023/07/14 01:07:08;;;;;;;11.18;10.00;;;;;;;14.66;92.68;101567.59;4991177;28;20437;-86
2023/07/14 01:09:34;;;;;;;10.95;9.80;;;;;;;14.59;92.94;101558.59;4978479;28;20131;-86
2023/07/14 01:12:00;;;;;;;11.77;9.38;;;;;;;14.49;93.79;101559.84;4980700;28;20465;-87
2023/07/14 01:14:30;;;;;;;13.88;9.85;;;;;;;14.49;94.07;101564.41;4959335;28;20034;-86
2023/07/14 01:16:56;;;;;;;11.75;10.55;;;;;;;14.59;94.09;101567.56;5003924;28;20048;-86
2023/07/14 01:19:40;;;;;;;10.88;9.65;;;;;;;14.73;93.80;101567.63;5009720;28;20030;-86
2023/07/14 01:22:12;;;;;;;11.38;10.18;;;;;;;14.74;92.87;101563.88;5012123;28;20030;-86
2023/07/14 01:24:42;;;;;;;11.18;9.75;;;;;;;14.69;93.19;101557.19;5003843;28;20041;-86
2023/07/14 01:27:08;;;;;;;11.30;9.40;;;;;;;14.74;92.39;101558.44;4963693;28;20022;-83
2023/07/14 01:29:34;;;;;;;11.68;9.57;;;;;;;14.71;92.54;101559.69;4976122;28;20038;-87
2023/07/14 01:31:59;;;;;;;12.75;10.20;;;;;;;14.66;92.68;101562.97;4954965;28;20349;-86
2023/07/14 01:34:25;;;;;;;11.15;10.05;;;;;;;14.74;92.31;101553.84;4962592;28;20027;-86
2023/07/14 01:36:56;;;;;;;13.80;10.68;;;;;;;14.78;92.22;101554.28;4968646;28;20061;-86
2023/07/14 01:39:21;;;;;;;11.82;10.57;;;;;;;14.75;92.36;101543.84;5019106;28;20039;-86
2023/07/14 01:41:47;;;;;;;10.75;9.70;;;;;;;14.67;92.79;101553.81;4966662;28;20046;-86
2023/07/14 01:44:15;;;;;;;11.20;10.10;;;;;;;14.64;93.39;101543.41;4964708;28;20034;-86
2023/07/14 01:46:41;;;;;;;11.02;9.90;;;;;;;14.75;93.24;101551.97;4954216;28;20034;-87
2023/07/14 01:49:36;;;;;;;12.80;9.98;;;;;;;14.85;93.02;101549.69;4978074;28;20034;-88
2023/07/14 01:52:02;;;;;;;10.95;9.68;;;;;;;14.79;92.45;101550.53;4973566;28;20067;-86
2023/07/14 01:54:51;;;;;;;11.57;9.98;;;;;;;14.70;92.60;101545.31;4986812;28;20148;-87
2023/07/14 01:57:19;;;;;;;11.18;10.07;;;;;;;14.64;93.02;101543.41;4998525;28;20408;-87
2023/07/14 01:59:47;;;;;;;12.88;10.90;;;;;;;14.61;93.34;101543.81;4997435;28;20087;-86
2023/07/14 02:02:20;;;;;;;13.20;11.00;;;;;;;14.60;94.01;101547.56;4956822;28;20039;-86
2023/07/14 02:04:46;;;;;;;12.68;10.85;;;;;;;14.60;94.14;101534.03;4972732;28;20034;-87
2023/07/14 02:07:13;;;;;;;13.13;11.43;;;;;;;14.59;94.04;101543.19;5007113;28;20088;-87
2023/07/14 02:09:38;;;;;;;12.45;11.13;;;;;;;14.54;94.51;101537.53;4972295;28;20042;-87
2023/07/14 02:12:05;;;;;;;12.70;11.15;;;;;;;14.50;94.80;101536.28;4999777;28;20423;-87
2023/07/14 02:14:58;;;;;;;14.60;11.60;;;;;;;14.46;94.78;101533.16;4978279;28;20176;-87
2023/07/14 02:17:30;;;;;;;12.27;10.93;;;;;;;14.40;95.03;101526.69;4999464;28;20030;-85
2023/07/14 02:19:56;;;;;;;12.38;11.10;;;;;;;14.32;95.20;101528.75;5018144;28;20088;-86
2023/07/14 02:22:24;;;;;;;14.55;12.20;;;;;;;14.24;96.06;101521.66;5014146;28;20026;-76
2023/07/14 02:24:49;;;;;;;14.93;12.75;;;;;;;14.16;96.57;101533.53;4978776;28;20060;-82
2023/07/14 02:27:15;;;;;;;14.25;11.93;;;;;;;14.10;97.02;101521.66;4969669;28;20496;-82
2023/07/14 02:29:40;;;;;;;16.02;12.52;;;;;;;14.08;97.80;101523.72;5068501;28;20048;-83
2023/07/14 02:32:17;;;;;;;16.67;12.13;;;;;;;14.04;97.85;101530.56;5069348;28;20029;-82
2023/07/14 02:34:57;;;;;;;14.25;12.80;;;;;;;14.04;98.01;101530.56;5067056;28;20594;-81
2023/07/14 02:37:51;;;;;;;13.98;12.05;;;;;;;14.03;98.36;101523.47;5067547;28;20124;-84
2023/07/14 02:40:17;;;;;;;15.65;11.93;;;;;;;14.05;98.32;101525.97;5059826;28;20042;-82
2023/07/14 02:42:44;;;;;;;13.55;12.15;;;;;;;14.06;98.22;101520.38;5044961;28;20024;-84
2023/07/14 02:45:10;;;;;;;14.55;12.50;;;;;;;14.02;98.00;101515.59;5068539;28;20021;-83
2023/07/14 02:47:37;;;;;;;15.43;12.63;;;;;;;13.94;98.50;101522.00;5054197;28;20035;-83
2023/07/14 02:50:03;;;;;;;13.45;12.05;;;;;;;13.88;98.66;101518.22;5035178;28;20073;-83
2023/07/14 02:52:28;;;;;;;12.52;11.02;;;;;;;13.94;98.93;101524.72;5074604;28;20025;-85
2023/07/14 02:54:54;;;;;;;13.73;10.90;;;;;;;13.95;98.74;101519.09;5070011;28;20098;-85
2023/07/14 02:57:21;;;;;;;13.02;10.85;;;;;;;13.99;98.34;101514.09;5069861;28;20082;-83
2023/07/14 02:59:47;;;;;;;11.38;10.18;;;;;;;14.10;97.81;101516.22;5070442;28;20081;-85
2023/07/14 03:02:12;;;;;;;14.57;10.88;;;;;;;14.15;96.75;101522.88;5071258;28;20032;-85
2023/07/14 03:04:38;;;;;;;15.48;10.45;;;;;;;14.15;96.49;101517.47;5067418;28;20074;-84
2023/07/14 03:07:03;;;;;;;11.85;10.45;;;;;;;14.02;96.29;101512.88;5066203;28;20024;-84
2023/07/14 03:09:29;;;;;;;12.18;10.75;;;;;;;13.97;96.71;101509.94;5071871;28;20559;-84
2023/07/14 03:11:54;;;;;;;15.30;10.55;;;;;;;13.80;96.59;101511.13;5067114;28;20041;-84
2023/07/14 03:14:20;;;;;;;13.10;11.32;;;;;;;13.70;97.06;101505.25;5063579;28;20025;-85
2023/07/14 03:16:45;;;;;;;13.98;11.30;;;;;;;13.57;97.73;101510.63;5073095;28;20032;-84
2023/07/14 03:19:14;;;;;;;15.52;10.73;;;;;;;13.47;98.15;101500.97;5075023;28;20029;-85
2023/07/14 03:21:39;;;;;;;13.38;11.98;;;;;;;13.40;98.62;101500.13;5070368;28;20032;-85
2023/07/14 03:24:05;;;;;;;14.60;11.85;;;;;;;13.32;98.88;101502.94;5066677;28;20036;-84
2023/07/14 03:26:31;;;;;;;17.38;12.80;;;;;;;13.27;99.14;101500.00;5070657;28;20028;-84
2023/07/14 03:28:56;;;;;;;17.85;13.05;;;;;;;13.24;99.82;101497.72;5065053;28;20070;-84
2023/07/14 03:31:22;;;;;;;18.40;12.88;;;;;;;13.22;100.00;101497.91;5002186;28;20489;-85
2023/07/14 03:33:47;;;;;;;18.05;13.93;;;;;;;13.24;100.00;101500.44;4993168;28;20038;-84
2023/07/14 03:36:13;;;;;;;17.80;12.65;;;;;;;13.28;100.00;101498.97;5013637;28;20422;-84
2023/07/14 03:38:43;;;;;;;15.50;12.85;;;;;;;13.32;100.00;101492.13;4987451;28;20038;-84
2023/07/14 03:41:10;;;;;;;15.25;12.48;;;;;;;13.36;100.00;101493.41;5009013;28;20037;-84
2023/07/14 03:43:35;;;;;;;15.25;12.45;;;;;;;13.40;100.00;101500.13;5033594;28;20381;-84
2023/07/14 03:46:00;;;;;;;15.98;12.50;;;;;;;13.47;100.00;101490.16;5024078;28;20034;-84
2023/07/14 03:48:31;;;;;;;16.10;11.90;;;;;;;13.59;100.00;101503.13;5034569;28;20394;-85
2023/07/14 03:51:01;;;;;;;13.20;11.80;;;;;;;13.75;100.00;101494.66;5036974;28;20527;-84
2023/07/14 03:53:27;;;;;;;13.95;11.48;;;;;;;13.77;99.50;101492.56;5025283;28;20035;-84
2023/07/14 03:55:52;;;;;;;16.25;11.48;;;;;;;13.80;98.61;101491.34;5039431;28;20030;-85
2023/07/14 03:58:17;;;;;;;12.07;10.65;;;;;;;13.87;97.80;101494.06;5021838;28;20450;-85
2023/07/14 04:00:43;;;;;;;13.13;11.05;;;;;;;13.87;97.26;101494.06;5056446;28;20022;-85
2023/07/14 04:03:09;;;;;;;12.20;10.90;;;;;;;13.91;96.65;101490.75;5008807;28;20052;-83
2023/07/14 04:05:34;;;;;;;11.32;10.13;;;;;;;14.03;96.00;101488.28;5001432;28;20079;-84
2023/07/14 04:08:05;;;;;;;10.93;9.88;;;;;;;14.12;95.25;101490.81;5027213;28;20034;-85
2023/07/14 04:10:31;;;;;;;13.05;10.82;;;;;;;14.07;94.68;101489.56;4998753;28;20099;-82
2023/07/14 04:12:57;;;;;;;12.07;9.50;;;;;;;14.20;94.53;101505.00;5011359;28;20415;-84
2023/07/14 04:15:28;;;;;;;10.48;9.38;;;;;;;14.35;93.39;101496.69;5032330;28;20038;-84
2023/07/14 04:17:54;;;;;;;10.57;8.80;;;;;;;14.48;92.38;101497.72;5047879;28;20538;-84
2023/07/14 04:20:20;;;;;;;10.32;8.80;;;;;;;14.60;90.89;101497.94;5011208;28;20035;-83
2023/07/14 04:22:46;;;;;;;10.52;8.70;;;;;;;14.55;90.99;101491.28;4998647;28;20062;-85
2023/07/14 04:25:11;;;;;;;10.32;9.13;;;;;;;14.54;91.03;101497.75;5044030;28;20492;-85
2023/07/14 04:27:37;;;;;;;10.50;9.10;;;;;;;14.63;90.89;101498.38;4989178;28;20022;-85
2023/07/14 04:30:04;;;;;;;10.80;8.88;;;;;;;14.66;90.81;101495.22;4993148;28;20062;-83
2023/07/14 04:32:30;;;;;;;11.82;9.77;;;;;;;14.70;90.53;101498.41;4992087;28;20023;-83
2023/07/14 04:34:56;;;;;;;10.45;9.38;;;;;;;14.63;90.82;101503.81;4994328;28;20115;-84
2023/07/14 04:37:21;;;;;;;11.07;9.75;;;;;;;14.66;90.55;101497.13;4986984;28;20470;-83
2023/07/14 04:39:47;;;;;;;10.60;9.50;;;;;;;14.72;90.29;101503.63;4999555;28;20083;-83
2023/07/14 04:42:12;;;;;;;10.32;9.32;;;;;;;14.83;89.75;101502.97;4988944;28;20031;-85
2023/07/14 04:44:38;;;;;;;11.35;9.43;;;;;;;14.94;89.64;101502.34;5007253;28;20650;-83
2023/07/14 04:47:04;;;;;;;10.27;9.32;;;;;;;15.30;88.49;101501.03;4989865;28;20023;-83
2023/07/14 04:49:30;;;;;;;10.27;8.70;;;;;;;15.65;85.63;101497.16;4987278;28;20109;-85
2023/07/14 04:51:55;;;;;;;10.63;8.88;;;;;;;15.80;84.96;101499.59;4984915;28;20022;-83
2023/07/14 04:54:23;;;;;;;12.38;9.13;;;;;;;15.93;85.23;101495.19;4994833;28;20037;-82
2023/07/14 04:56:49;;;;;;;11.25;9.93;;;;;;;16.06;83.80;101493.22;5028588;28;20038;-81
2023/07/14 04:59:15;;;;;;;12.32;9.10;;;;;;;16.27;82.07;101498.53;4986325;28;20025;-83
2023/07/14 05:01:40;;;;;;;10.30;8.90;;;;;;;16.39;80.89;101499.50;4987471;28;20034;-82
2023/07/14 05:04:13;;;;;;;10.25;8.80;;;;;;;16.45;80.17;101493.19;5001555;28;20027;-82
2023/07/14 05:06:40;;;;;;;9.23;8.20;;;;;;;16.36;81.18;101494.50;4986943;28;20033;-82
2023/07/14 05:09:06;;;;;;;10.02;9.02;;;;;;;16.63;80.48;101494.28;4994503;28;20110;-81
2023/07/14 05:11:32;;;;;;;10.38;8.40;;;;;;;17.40;76.60;101484.97;4985337;28;20482;-82
2023/07/14 05:13:58;;;;;;;10.82;8.90;;;;;;;18.01;74.75;101488.63;4989731;28;20034;-81
2023/07/14 05:16:26;;;;;;;9.52;8.48;;;;;;;18.61;72.20;101486.06;4983434;28;20618;-82
2023/07/14 05:18:53;;;;;;;9.32;8.23;;;;;;;19.36;69.02;101486.41;5005271;28;20020;-82
2023/07/14 05:21:18;;;;;;;10.90;8.10;;;;;;;20.27;65.13;101487.63;5003775;28;20045;-83
2023/07/14 05:23:44;;;;;;;10.70;9.15;;;;;;;20.21;65.94;101486.69;5003957;28;20032;-82
2023/07/14 05:26:09;;;;;;;13.32;9.15;;;;;;;20.24;65.47;101482.66;4992307;28;20428;-82
2023/07/14 05:28:35;;;;;;;9.45;8.48;;;;;;;20.42;64.77;101482.44;5017049;28;20513;-82
2023/07/14 05:31:02;;;;;;;9.88;8.75;;;;;;;21.22;62.58;101480.63;4988231;28;20031;-82
2023/07/14 05:33:28;;;;;;;9.98;8.60;;;;;;;21.80;59.16;101479.16;5010279;28;20022;-83
2023/07/14 05:36:02;;;;;;;9.52;7.32;;;;;;;22.24;59.05;101483.69;5011290;23;20592;-82
2023/07/14 05:38:29;;;;;;;12.27;8.38;;;;;;;22.44;57.77;101489.66;5102071;27;20023;-83
2023/07/14 05:40:55;;;;;;;8.27;6.18;;;;;;;23.52;54.61;101489.50;5108632;27;20058;-82
2023/07/14 05:43:20;;;;;;;8.18;6.97;;;;;;;23.98;51.75;101492.44;5127210;27;20382;-82
2023/07/14 05:45:58;;;;;;;;;;;;;;;;;;;;;
2023/07/14 05:48:24;;;;;;;8.68;7.38;;;;;;;24.24;50.51;101495.19;5091915;27;20523;-82
2023/07/14 05:50:50;;;;;;;8.55;7.35;;;;;;;24.90;49.23;101496.28;5098802;27;20017;-81
2023/07/14 05:53:16;;;;;;;9.07;7.13;;;;;;;24.90;48.32;101490.78;5072602;27;20019;-82
2023/07/14 05:55:42;;;;;;;7.72;6.90;;;;;;;24.49;49.86;101486.13;5139628;27;20027;-82
2023/07/14 05:58:07;;;;;;;8.18;6.30;;;;;;;25.43;47.31;101495.03;5135919;27;20038;-82
2023/07/14 06:00:38;;;;;;;7.68;6.38;;;;;;;25.97;45.29;101481.53;5066971;27;20044;-82
2023/07/14 06:03:06;;;;;;;7.40;6.57;;;;;;;25.59;45.56;101484.78;5064745;27;20060;-82
2023/07/14 06:05:37;;;;;;;7.00;6.18;;;;;;;24.50;48.82;101489.72;5113524;27;20023;-82
2023/07/14 06:08:08;;;;;;;9.00;7.28;;;;;;;24.27;48.67;101482.84;5126156;27;20023;-80
2023/07/14 06:10:37;;;;;;;8.18;7.30;;;;;;;23.01;53.06;101477.16;5095210;27;20064;-80
2023/07/14 06:13:03;;;;;;;9.63;7.35;;;;;;;22.42;54.41;101478.94;5091344;27;20019;-81
2023/07/14 06:15:28;;;;;;;10.10;7.18;;;;;;;21.92;56.91;101470.78;5127039;27;20031;-85
2023/07/14 06:17:54;;;;;;;9.32;7.80;;;;;;;22.33;56.04;101469.50;5124121;27;20042;-83
2023/07/14 06:20:20;;;;;;;9.60;7.25;;;;;;;23.69;51.49;101468.13;5125792;27;20355;-82
2023/07/14 06:22:45;;;;;;;8.25;6.75;;;;;;;23.59;52.04;101470.84;5071599;22;20038;-82
2023/07/14 06:25:11;;;;;;;12.52;7.85;;;;;;;23.19;53.31;101469.56;5023566;27;20057;-81
2023/07/14 06:27:36;;;;;;;8.43;7.35;;;;;;;23.52;52.00;101467.53;5084029;27;20042;-80
2023/07/14 06:30:03;;;;;;;7.85;6.30;;;;;;;24.64;50.38;101465.19;5043329;28;20043;-81
2023/07/14 06:32:28;;;;;;;7.25;6.55;;;;;;;25.38;47.88;101478.53;5022858;28;20053;-81
2023/07/14 06:34:56;;;;;;;8.30;6.60;;;;;;;25.75;47.76;101462.63;5018965;28;20036;-81
2023/07/14 06:37:24;;;;;;;9.18;6.10;;;;;;;26.20;45.76;101470.91;5025926;28;20759;-81
2023/07/14 06:39:50;;;;;;;7.85;5.88;;;;;;;26.81;44.14;101463.22;5028321;28;20055;-81
2023/07/14 06:42:16;;;;;;;7.47;5.95;;;;;;;27.24;43.13;101460.47;5022012;28;20033;-81
2023/07/14 06:44:42;;;;;;;10.30;6.20;;;;;;;27.34;42.57;101457.59;5038132;27;20065;-78
2023/07/14 06:47:09;;;;;;;6.32;5.30;;;;;;;27.29;41.04;101456.81;5026158;28;20064;-78
2023/07/14 06:49:34;;;;;;;7.40;6.18;;;;;;;25.48;46.49;101467.47;5038737;28;20056;-79
2023/07/14 06:52:00;;;;;;;7.43;6.13;;;;;;;24.92;47.77;101460.22;5046032;27;20575;-79
2023/07/14 06:54:28;;;;;;;8.15;6.10;;;;;;;24.80;47.46;101455.00;5052938;28;20033;-79
2023/07/14 06:56:55;;;;;;;10.13;6.65;;;;;;;24.66;48.67;101461.06;5025347;28;20135;-79
2023/07/14 06:59:20;;;;;;;8.13;6.95;;;;;;;24.38;48.95;101460.53;5025250;28;20104;-80
2023/07/14 07:01:46;;;;;;;10.75;7.82;;;;;;;24.45;49.79;101462.19;5031583;28;20039;-80
2023/07/14 07:04:11;;;;;;;9.40;7.20;;;;;;;24.67;49.26;101464.63;5018878;28;20417;-81
2023/07/14 07:06:37;;;;;;;8.98;6.00;;;;;;;25.13;47.40;101459.06;5025237;28;20468;-81
2023/07/14 07:09:02;;;;;;;7.10;5.82;;;;;;;25.15;46.97;101461.53;5040133;28;20437;-81
2023/07/14 07:11:28;;;;;;;7.05;5.50;;;;;;;25.77;45.16;101464.00;5022635;28;20021;-80
2023/07/14 07:13:53;;;;;;;8.63;6.05;;;;;;;24.25;50.64;101455.59;5017281;28;20026;-81
2023/07/14 07:16:18;;;;;;;5.68;5.00;;;;;;;26.20;43.93;101454.34;5034915;27;20041;-81
2023/07/14 07:18:44;;;;;;;5.45;4.20;;;;;;;26.85;43.05;101459.56;5044651;28;20037;-81
2023/07/14 07:21:12;;;;;;;6.88;4.05;;;;;;;26.98;41.83;101448.91;5055931;28;20037;-80
2023/07/14 07:23:37;;;;;;;5.75;3.90;;;;;;;28.07;39.58;101454.63;5034374;27;20056;-80
2023/07/14 07:26:03;;;;;;;6.07;3.90;;;;;;;28.03;39.33;101444.47;5044451;27;20033;-80
2023/07/14 07:28:30;;;;;;;5.53;3.75;;;;;;;28.43;37.55;101447.69;5049521;27;20461;-78
2023/07/14 07:30:55;;;;;;;8.18;4.07;;;;;;;27.49;40.47;101447.50;5075559;27;20484;-78
2023/07/14 07:33:21;;;;;;;5.50;3.53;;;;;;;28.24;38.61;101445.78;5065238;27;20040;-79
2023/07/14 07:35:49;;;;;;;5.47;3.35;;;;;;;28.50;37.21;101445.34;5054718;27;20033;-79
2023/07/14 07:38:14;;;;;;;5.38;3.30;;;;;;;28.57;36.38;101444.94;5055300;27;20116;-78
2023/07/14 07:40:40;;;;;;;7.10;3.60;;;;;;;28.40;37.67;101442.78;5049429;27;20376;-78
2023/07/14 07:43:06;;;;;;;4.25;3.67;;;;;;;29.23;36.64;101438.44;5047961;27;20112;-79
2023/07/14 07:45:32;;;;;;;4.25;3.13;;;;;;;29.33;35.71;101432.66;5049755;27;20133;-79
2023/07/14 07:47:57;;;;;;;4.75;3.55;;;;;;;29.93;33.84;101423.22;5078879;27;20118;-79
2023/07/14 07:50:23;;;;;;;5.15;3.13;;;;;;;28.88;34.82;101430.53;5063333;27;20507;-79
2023/07/14 07:52:48;;;;;;;5.65;3.40;;;;;;;29.74;34.67;101434.53;5074978;27;20031;-79
2023/07/14 07:55:14;;;;;;;5.60;3.40;;;;;;;28.06;37.24;101421.75;5074256;27;20015;-79
2023/07/14 07:57:40;;;;;;;6.25;3.92;;;;;;;27.37;39.29;101426.56;5069266;27;20031;-79
2023/07/14 08:00:12;;;;;;;5.20;3.22;;;;;;;27.26;40.07;101410.44;5050493;27;20029;-79
2023/07/14 08:02:37;;;;;;;5.93;3.53;;;;;;;26.18;42.46;101410.50;5029859;28;20032;-79
2023/07/14 08:05:03;;;;;;;6.82;3.50;;;;;;;26.87;40.89;101412.28;5060576;27;20040;-79
2023/07/14 08:07:28;;;;;;;4.43;2.80;;;;;;;26.97;39.97;101401.13;5038213;27;20034;-79
2023/07/14 08:09:53;;;;;;;3.42;2.95;;;;;;;26.64;40.77;101410.03;5074327;27;20027;-79
2023/07/14 08:12:19;;;;;;;4.75;3.67;;;;;;;26.09;42.19;101409.44;5044907;27;20356;-79
2023/07/14 08:14:57;;;;;;;7.57;3.83;;;;;;;26.01;42.21;101411.72;5044512;27;20044;-78
2023/07/14 08:17:23;;;;;;;5.40;3.28;;;;;;;25.45;43.95;101401.88;5040270;27;20033;-79
2023/07/14 08:19:49;;;;;;;5.70;3.35;;;;;;;27.65;38.64;101401.91;5046695;27;20025;-79
2023/07/14 08:22:14;;;;;;;4.35;3.28;;;;;;;28.58;38.04;101405.03;5056503;27;20042;-79
2023/07/14 08:24:40;;;;;;;4.25;2.70;;;;;;;30.00;33.14;101402.56;5091463;27;20052;-79
2023/07/14 08:27:05;;;;;;;3.97;2.50;;;;;;;29.84;33.64;101407.66;5064605;27;20037;-80
2023/07/14 08:29:31;;;;;;;3.80;2.50;;;;;;;30.00;33.33;101405.34;5032191;28;20021;-81
2023/07/14 08:31:59;;;;;;;4.22;2.75;;;;;;;30.04;32.72;101387.75;5079705;27;20034;-80
2023/07/14 08:34:27;;;;;;;3.50;2.72;;;;;;;29.15;34.00;101393.66;5040097;27;20433;-80
2023/07/14 08:36:55;;;;;;;5.10;2.63;;;;;;;28.36;35.47;101397.44;5051754;27;20061;-78
2023/07/14 08:39:21;;;;;;;4.47;2.95;;;;;;;28.82;34.30;101396.56;5068955;27;20058;-79
2023/07/14 08:41:52;;;;;;;6.15;2.80;;;;;;;28.96;34.06;101406.81;5094071;27;20034;-78
2023/07/14 08:44:20;;;;;;;5.80;2.92;;;;;;;29.33;33.62;101399.38;5042994;27;20028;-78
2023/07/14 08:47:07;;;;;;;5.90;2.70;;;;;;;29.67;33.87;101400.03;5046688;27;20060;-77
2023/07/14 08:49:37;;;;;;;4.82;2.72;;;;;;;28.96;35.37;101398.50;5027073;28;20113;-81
2023/07/14 08:52:04;;;;;;;6.00;2.88;;;;;;;29.14;34.68;101389.25;5002632;27;20594;-80
2023/07/14 08:55:00;;;;;;;4.40;2.83;;;;;;;27.96;36.61;101393.09;5066454;27;20025;-80
2023/07/14 08:57:25;;;;;;;5.18;3.17;;;;;;;27.17;37.87;101394.53;5022883;27;20037;-80
2023/07/14 08:59:53;;;;;;;5.07;2.90;;;;;;;27.06;38.41;101388.28;5010265;28;20033;-79
2023/07/14 09:02:25;;;;;;;3.78;2.60;;;;;;;26.90;38.34;101390.44;5032856;27;20060;-79
2023/07/14 09:05:03;;;;;;;4.53;3.33;;;;;;;26.38;39.89;101387.38;5062334;27;20032;-79
2023/07/14 09:07:45;;;;;;;5.28;3.47;;;;;;;26.14;41.24;101382.63;5044315;27;20513;-79
2023/07/14 09:10:11;;;;;;;4.40;3.22;;;;;;;25.93;41.36;101378.41;5063094;27;20029;-79
2023/07/14 09:12:55;;;;;;;6.65;3.40;;;;;;;25.86;41.81;101387.81;5103408;27;20176;-79
2023/07/14 09:15:25;;;;;;;5.90;3.30;;;;;;;24.83;43.28;101388.38;5028047;28;20033;-79
2023/07/14 09:17:54;;;;;;;4.97;3.17;;;;;;;25.28;42.67;101381.00;5048778;27;20021;-79
2023/07/14 09:20:28;;;;;;;5.72;3.10;;;;;;;24.88;44.11;101379.25;5024891;28;20029;-79
2023/07/14 09:23:18;;;;;;;;;;;;;;;24.60;44.14;101376.84;5077829;27;20037;-78
2023/07/14 09:25:52;;;;;;;5.10;3.38;;;;;;;24.38;44.64;101375.22;5080243;27;20534;-79
2023/07/14 09:28:23;;;;;;;5.57;3.00;;;;;;;24.42;44.58;101371.91;5055462;27;20056;-83
2023/07/14 09:30:48;;;;;;;6.78;3.92;;;;;;;24.27;45.40;101375.53;5045255;27;20039;-86
2023/07/14 09:33:15;;;;;;;6.47;3.85;;;;;;;24.25;45.25;101369.50;5027722;28;20033;-83
2023/07/14 09:35:41;;;;;;;5.35;3.90;;;;;;;24.21;45.96;101366.44;5047721;27;20044;-83
2023/07/14 09:38:22;;;;;;;5.50;3.80;;;;;;;24.42;45.70;101370.00;5012050;27;20029;-85
2023/07/14 09:40:48;;;;;;;5.18;3.40;;;;;;;24.70;45.13;101369.66;5091019;27;20139;-83
2023/07/14 09:43:14;;;;;;;4.45;3.35;;;;;;;25.22;43.96;101365.63;5045967;27;20057;-83
2023/07/14 09:45:39;;;;;;;5.35;3.30;;;;;;;25.72;43.16;101362.81;5045254;27;20017;-82
2023/07/14 09:48:16;;;;;;;5.30;3.85;;;;;;;26.60;40.95;101364.78;5086182;27;20031;-82
2023/07/14 09:50:49;;;;;;;5.82;3.30;;;;;;;26.60;41.33;101363.97;5036927;27;20516;-81
2023/07/14 09:53:14;;;;;;;5.28;3.30;;;;;;;26.12;42.36;101365.53;5024075;28;20037;-82
2023/07/14 09:55:59;;;;;;;5.38;3.88;;;;;;;24.94;44.61;101367.94;5029272;27;20040;-83
2023/07/14 09:58:27;;;;;;;4.32;3.67;;;;;;;24.73;44.49;101363.59;5059857;27;20036;-82
2023/07/14 10:00:54;;;;;;;5.65;3.97;;;;;;;24.18;45.35;101361.53;5052489;27;20026;-82
2023/07/14 10:03:20;;;;;;;5.35;3.95;;;;;;;23.89;46.14;101359.28;5029898;27;20021;-82
2023/07/14 10:06:03;;;;;;;8.40;3.80;;;;;;;23.62;47.44;101352.94;5045622;27;20063;-82
2023/07/14 10:08:59;;;;;;;4.57;3.72;;;;;;;23.57;48.12;101361.16;5025225;27;20528;-82
2023/07/14 10:11:40;;;;;;;5.28;3.40;;;;;;;23.57;47.96;101357.63;5037531;27;20592;-82
2023/07/14 10:14:35;;;;;;;5.22;3.58;;;;;;;24.23;46.31;101350.50;5047778;27;20027;-82
2023/07/14 10:17:00;;;;;;;6.53;3.40;;;;;;;24.96;44.88;101343.69;5045387;28;20033;-82
2023/07/14 10:19:36;;;;;;;5.60;3.25;;;;;;;25.46;43.46;101336.56;5040796;27;20060;-83
2023/07/14 10:22:08;;;;;;;5.40;3.30;;;;;;;24.70;45.55;101342.97;5041856;27;20071;-82
2023/07/14 10:24:35;;;;;;;5.50;3.30;;;;;;;25.12;45.24;101333.44;5036710;27;20045;-81
2023/07/14 10:27:12;;;;;;;6.05;3.20;;;;;;;25.74;43.05;101326.69;5042631;27;20025;-83
2023/07/14 10:29:46;;;;;;;4.63;3.05;;;;;;;25.32;43.78;101322.56;5023566;27;20033;-83
2023/07/14 10:32:20;;;;;;;4.50;2.60;;;;;;;25.70;41.97;101320.13;5062431;27;20488;-83
2023/07/14 10:34:53;;;;;;;6.53;2.95;;;;;;;25.88;40.48;101316.66;5037205;28;20032;-82
2023/07/14 10:37:27;;;;;;;5.78;2.67;;;;;;;26.13;40.11;101317.53;5027832;27;20498;-83
2023/07/14 10:40:01;;;;;;;4.72;2.70;;;;;;;26.06;41.43;101311.50;5020971;28;20033;-83
2023/07/14 10:42:30;;;;;;;5.13;2.88;;;;;;;25.16;44.01;101308.88;5023647;27;20033;-81
2023/07/14 10:44:57;;;;;;;6.38;3.20;;;;;;;25.43;43.13;101305.69;5051769;27;20081;-82
2023/07/14 10:47:25;;;;;;;3.97;3.00;;;;;;;25.77;42.65;101309.56;5012608;27;20116;-81
2023/07/14 10:49:59;;;;;;;5.43;2.92;;;;;;;24.41;43.68;101302.31;5016508;28;20074;-81
2023/07/14 10:52:31;;;;;;;11.05;3.45;;;;;;;25.12;42.96;101300.38;5077892;27;20033;-81
2023/07/14 10:55:03;;;;;;;5.30;2.65;;;;;;;25.83;41.85;101300.13;5026392;28;20057;-81
2023/07/14 10:57:42;;;;;;;3.90;2.67;;;;;;;26.26;40.59;101293.13;5025891;28;20401;-81
2023/07/14 11:00:20;;;;;;;4.57;2.45;;;;;;;26.76;39.24;101285.34;5021034;27;20089;-81
2023/07/14 11:03:12;;;;;;;3.35;1.92;;;;;;;27.86;36.11;101279.00;5000149;28;20042;-81
2023/07/14 11:05:38;;;;;;;5.05;2.63;;;;;;;28.29;35.24;101285.13;5005720;27;20048;-81
2023/07/14 11:08:08;;;;;;;2.85;2.13;;;;;;;28.35;35.76;101277.53;5014655;27;20088;-81
2023/07/14 11:10:36;;;;;;;4.97;2.33;;;;;;;28.54;34.95;101280.22;5037612;28;20057;-81
2023/07/14 11:13:08;;;;;;;6.95;2.40;;;;;;;28.64;33.95;101272.78;5034522;27;20468;-81
2023/07/14 11:15:41;;;;;;;3.17;2.08;;;;;;;28.27;35.70;101276.31;5031137;28;20025;-81
2023/07/14 11:18:18;;;;;;;3.97;2.20;;;;;;;27.87;36.27;101272.34;5043504;27;20056;-80
2023/07/14 11:21:07;;;;;;;4.35;2.13;;;;;;;27.74;37.27;101273.94;5074297;27;20120;-80
2023/07/14 11:23:39;;;;;;;4.80;2.50;;;;;;;27.17;37.75;101259.09;5080134;27;20045;-81
2023/07/14 11:26:12;;;;;;;5.75;2.70;;;;;;;26.56;39.34;101264.34;5012130;28;20407;-80
2023/07/14 11:29:04;;;;;;;5.80;2.42;;;;;;;26.43;39.72;101260.38;5045725;27;20040;-81